createdAt,value
2019-03-23T00:02:05.996Z,6.60
2019-03-23T00:04:37.029Z,6.83
2019-03-23T00:07:07.883Z,6.87
2019-03-23T00:09:39.099Z,6.70
2019-03-23T00:12:09.987Z,6.70
2019-03-23T00:14:40.826Z,6.37
2019-03-23T00:17:12.621Z,6.47
2019-03-23T00:19:43.735Z,6.70
2019-03-23T00:22:14.663Z,6.50
2019-03-23T00:24:45.437Z,6.37
2019-03-23T00:27:16.860Z,6.13
2019-03-23T00:29:48.197Z,6.00
2019-03-23T00:32:19.067Z,5.97
2019-03-23T00:34:51.716Z,6.57
2019-03-23T00:37:22.599Z,6.87
2019-03-23T00:39:53.787Z,6.63
2019-03-23T00:42:24.953Z,6.43
2019-03-23T00:44:56.673Z,6.80
2019-03-23T00:47:27.445Z,6.65
2019-03-23T00:49:58.303Z,5.87
2019-03-23T00:52:29.110Z,5.67
2019-03-23T00:55:01.370Z,6.40
2019-03-23T00:57:32.275Z,6.47
2019-03-23T01:00:03.080Z,5.80
2019-03-23T01:02:34.230Z,6.53
2019-03-23T01:05:06.010Z,6.57
2019-03-23T01:07:37.314Z,6.40
2019-03-23T01:10:09.366Z,6.57
2019-03-23T01:12:40.901Z,5.83
2019-03-23T01:15:12.814Z,6.80
2019-03-23T01:17:43.594Z,6.80
2019-03-23T01:20:14.881Z,6.40
2019-03-23T01:22:46.357Z,6.20
2019-03-23T01:25:17.470Z,6.70
2019-03-23T01:27:48.300Z,5.60
2019-03-23T01:30:19.383Z,6.30
2019-03-23T01:32:50.246Z,6.27
2019-03-23T01:35:21.056Z,6.17
2019-03-23T01:37:51.869Z,5.70
2019-03-23T01:40:24.643Z,5.47
2019-03-23T01:42:56.316Z,5.93
2019-03-23T01:45:27.854Z,6.07
2019-03-23T01:47:58.657Z,5.77
2019-03-23T01:50:30.004Z,6.23
2019-03-23T01:53:00.967Z,6.53
2019-03-23T01:55:31.815Z,5.90
2019-03-23T01:58:02.574Z,5.93
2019-03-23T02:00:33.655Z,6.20
2019-03-23T02:03:04.451Z,6.40
2019-03-23T02:05:36.046Z,6.47
2019-03-23T02:08:06.851Z,6.37
2019-03-23T02:10:37.608Z,6.10
2019-03-23T02:13:08.400Z,6.17
2019-03-23T02:15:40.283Z,6.17
2019-03-23T02:18:12.120Z,6.53
2019-03-23T02:20:43.564Z,6.90
2019-03-23T02:23:14.391Z,6.30
2019-03-23T02:25:45.647Z,6.20
2019-03-23T02:28:17.054Z,6.43
2019-03-23T02:30:47.965Z,6.57
2019-03-23T02:33:18.742Z,6.50
2019-03-23T02:35:49.570Z,6.22
2019-03-23T02:38:22.984Z,5.83
2019-03-23T02:40:54.011Z,6.03
2019-03-23T02:43:24.766Z,6.73
2019-03-23T02:45:55.500Z,5.97
2019-03-23T02:48:26.610Z,5.67
2019-03-23T02:50:57.356Z,6.17
2019-03-23T02:53:28.158Z,6.43
2019-03-23T02:55:59.069Z,6.13
2019-03-23T02:58:30.335Z,6.10
2019-03-23T03:01:01.244Z,5.50
2019-03-23T03:03:31.995Z,5.60
2019-03-23T03:06:04.107Z,5.53
2019-03-23T03:08:34.899Z,5.10
2019-03-23T03:11:06.187Z,5.23
2019-03-23T03:13:36.981Z,5.90
2019-03-23T03:19:37.833Z,5.57
2019-03-23T03:22:09.232Z,5.57
2019-03-23T03:24:39.984Z,5.63
2019-03-23T03:27:11.058Z,5.23
2019-03-23T03:29:42.353Z,5.30
2019-03-23T03:32:13.617Z,5.67
2019-03-23T03:34:44.441Z,5.43
2019-03-23T03:37:15.242Z,4.97
2019-03-23T03:39:46.019Z,4.97
2019-03-23T03:42:16.821Z,5.17
2019-03-23T03:44:47.553Z,5.50
2019-03-23T03:47:18.664Z,5.63
2019-03-23T03:49:49.470Z,5.73
2019-03-23T03:52:21.251Z,5.63
2019-03-23T03:54:52.151Z,5.13
2019-03-23T03:57:23.353Z,5.73
2019-03-23T03:59:54.061Z,5.60
2019-03-23T04:02:26.072Z,5.67
2019-03-23T04:04:56.848Z,5.83
2019-03-23T04:07:27.625Z,5.57
2019-03-23T04:09:58.414Z,5.60
2019-03-23T04:12:29.258Z,5.10
2019-03-23T04:15:00.028Z,5.27
2019-03-23T04:17:31.062Z,5.20
2019-03-23T04:20:02.584Z,4.90
2019-03-23T04:22:33.980Z,5.30
2019-03-23T04:25:04.847Z,5.47
2019-03-23T04:27:35.680Z,5.20
2019-03-23T04:30:07.204Z,5.00
2019-03-23T04:32:37.950Z,5.20
2019-03-23T04:35:09.236Z,4.97
2019-03-23T04:37:40.038Z,5.30
2019-03-23T04:40:11.577Z,5.00
2019-03-23T04:42:43.662Z,5.93
2019-03-23T04:45:14.770Z,6.30
2019-03-23T04:47:45.607Z,6.10
2019-03-23T04:50:16.616Z,5.50
2019-03-23T04:52:47.710Z,5.20
2019-03-23T04:55:18.859Z,5.53
2019-03-23T04:57:49.694Z,5.60
2019-03-23T05:00:20.772Z,5.37
2019-03-23T05:02:51.945Z,5.13
2019-03-23T05:05:23.223Z,5.80
2019-03-23T05:07:54.072Z,5.77
2019-03-23T05:10:24.944Z,5.60
2019-03-23T05:12:55.731Z,6.13
2019-03-23T05:15:26.552Z,5.50
2019-03-23T05:17:58.224Z,6.03
2019-03-23T05:20:31.050Z,6.53
2019-03-23T05:23:01.917Z,5.73
2019-03-23T05:25:34.012Z,6.93
2019-03-23T05:28:04.827Z,6.67
2019-03-23T05:30:36.121Z,7.77
2019-03-23T05:33:08.488Z,7.23
2019-03-23T05:35:39.291Z,8.00
2019-03-23T05:38:11.111Z,7.27
2019-03-23T05:40:42.172Z,7.47
2019-03-23T05:43:13.416Z,7.50
2019-03-23T05:45:44.246Z,6.47
2019-03-23T05:48:15.007Z,6.63
2019-03-23T05:50:46.064Z,6.95
2019-03-23T05:53:17.192Z,7.50
2019-03-23T05:55:48.314Z,6.87
2019-03-23T05:58:19.411Z,6.70
2019-03-23T06:00:50.538Z,6.40
2019-03-23T06:03:21.585Z,6.73
2019-03-23T06:05:52.290Z,6.03
2019-03-23T06:08:23.166Z,6.50
2019-03-23T06:10:53.966Z,6.60
2019-03-23T06:13:24.972Z,5.33
2019-03-23T06:15:56.149Z,6.10
2019-03-23T06:18:27.623Z,6.13
2019-03-23T06:20:58.664Z,6.93
2019-03-23T06:23:29.811Z,6.73
2019-03-23T06:26:00.537Z,6.80
2019-03-23T06:28:31.314Z,7.33
2019-03-23T06:31:02.107Z,6.87
2019-03-23T06:33:32.940Z,6.53
2019-03-23T06:36:03.676Z,6.37
2019-03-23T06:38:35.279Z,6.43
2019-03-23T06:41:06.170Z,8.30
2019-03-23T06:43:37.320Z,6.90
2019-03-23T06:46:08.516Z,6.40
2019-03-23T06:48:39.728Z,6.37
2019-03-23T06:51:10.538Z,6.83
2019-03-23T06:53:41.766Z,6.23
2019-03-23T06:56:12.514Z,6.10
2019-03-23T06:58:43.674Z,6.00
2019-03-23T07:01:14.738Z,6.87
2019-03-23T07:03:45.862Z,5.90
2019-03-23T07:06:16.890Z,5.90
2019-03-23T07:08:48.189Z,6.90
2019-03-23T07:11:19.515Z,6.17
2019-03-23T07:13:50.641Z,6.17
2019-03-23T07:16:21.479Z,6.00
2019-03-23T07:18:53.030Z,5.73
2019-03-23T07:21:23.802Z,5.87
2019-03-23T07:23:54.884Z,5.63
2019-03-23T07:26:26.121Z,6.08
2019-03-23T07:28:57.127Z,6.67
2019-03-23T07:31:28.359Z,6.30
2019-03-23T07:33:59.804Z,6.07
2019-03-23T07:36:30.698Z,6.77
2019-03-23T07:39:02.186Z,5.87
2019-03-23T07:41:33.955Z,6.57
2019-03-23T07:44:06.685Z,6.47
2019-03-23T07:46:37.787Z,6.73
2019-03-23T07:49:09.073Z,7.00
2019-03-23T07:51:40.637Z,7.00
2019-03-23T07:54:11.619Z,6.80
2019-03-23T07:56:42.762Z,6.23
2019-03-23T07:59:14.651Z,6.47
2019-03-23T08:01:45.452Z,6.13
2019-03-23T08:04:16.847Z,6.10
2019-03-23T08:06:48.338Z,6.80
2019-03-23T08:09:20.692Z,7.07
2019-03-23T08:11:51.796Z,6.40
2019-03-23T08:14:23.101Z,5.57
2019-03-23T08:16:54.424Z,6.50
2019-03-23T08:19:26.359Z,6.97
2019-03-23T08:21:57.496Z,6.57
2019-03-23T08:24:28.785Z,6.50
2019-03-23T08:26:59.762Z,6.80
2019-03-23T08:29:30.628Z,6.43
2019-03-23T08:32:01.427Z,7.57
2019-03-23T08:34:33.432Z,6.93
2019-03-23T08:37:04.547Z,6.63
2019-03-23T08:39:35.687Z,6.47
2019-03-23T08:42:06.513Z,6.77
2019-03-23T08:44:37.637Z,6.97
2019-03-23T08:47:08.404Z,5.93
2019-03-23T08:49:39.234Z,6.77
2019-03-23T08:52:10.872Z,7.55
2019-03-23T08:54:41.947Z,7.10
2019-03-23T08:57:13.211Z,6.50
2019-03-23T08:59:45.009Z,7.37
2019-03-23T09:02:16.108Z,6.77
2019-03-23T09:04:47.177Z,7.73
2019-03-23T09:07:17.964Z,7.13
2019-03-23T09:09:58.890Z,7.37
2019-03-23T09:12:22.699Z,7.20
2019-03-23T09:14:53.851Z,6.50
2019-03-23T09:17:24.984Z,7.07
2019-03-23T09:19:56.137Z,6.70
2019-03-23T09:22:27.688Z,7.50
2019-03-23T09:24:58.831Z,6.87
2019-03-23T09:27:30.319Z,6.83
2019-03-23T09:30:01.196Z,6.80
2019-03-23T09:32:32.276Z,6.67
2019-03-23T09:35:03.052Z,7.40
2019-03-23T09:37:38.165Z,6.27
2019-03-23T09:40:11.161Z,7.13
2019-03-23T09:42:40.794Z,6.37
2019-03-23T09:45:14.062Z,6.73
2019-03-23T09:47:44.968Z,6.83
2019-03-23T09:50:16.046Z,7.53
2019-03-23T09:52:47.267Z,5.87
2019-03-23T09:55:18.133Z,4.63
2019-03-23T09:57:49.049Z,4.87
2019-03-23T10:00:20.302Z,5.60
2019-03-23T10:02:51.157Z,5.97
2019-03-23T10:05:22.288Z,5.50
2019-03-23T10:07:53.199Z,5.37
2019-03-23T10:10:25.210Z,6.03
2019-03-23T10:12:57.044Z,6.05
2019-03-23T10:15:28.167Z,5.80
2019-03-23T10:18:01.597Z,6.05
2019-03-23T10:20:32.280Z,6.08
2019-03-23T10:23:03.109Z,6.30
2019-03-23T10:25:33.932Z,6.25
2019-03-23T10:28:04.720Z,6.60
2019-03-23T10:30:37.813Z,7.00
2019-03-23T10:33:14.081Z,7.25
2019-03-23T10:35:44.985Z,7.70
2019-03-23T10:38:16.045Z,7.28
2019-03-23T10:40:47.985Z,6.97
2019-03-23T10:43:19.042Z,7.25
2019-03-23T10:45:50.088Z,7.22
2019-03-23T10:48:21.573Z,7.60
2019-03-23T10:50:52.680Z,6.80
2019-03-23T10:53:23.979Z,6.47
2019-03-23T10:55:55.484Z,5.75
2019-03-23T10:58:26.404Z,5.65
2019-03-23T11:00:57.777Z,6.00
2019-03-23T11:03:28.622Z,7.03
2019-03-23T11:06:00.235Z,6.80
2019-03-23T11:08:31.333Z,6.70
2019-03-23T11:11:02.534Z,7.22
2019-03-23T11:13:33.763Z,7.33
2019-03-23T11:16:04.944Z,7.35
2019-03-23T11:18:37.807Z,6.65
2019-03-23T11:21:09.588Z,5.67
2019-03-23T11:23:40.703Z,6.10
2019-03-23T11:26:12.259Z,7.08
2019-03-23T11:28:43.237Z,7.27
2019-03-23T11:31:14.365Z,6.58
2019-03-23T11:33:45.208Z,5.50
2019-03-23T11:36:21.125Z,5.58
2019-03-23T11:38:53.019Z,5.72
2019-03-23T11:41:24.776Z,6.60
2019-03-23T11:43:55.718Z,6.27
2019-03-23T11:46:28.292Z,6.80
2019-03-23T11:48:59.018Z,5.93
2019-03-23T11:51:29.882Z,7.33
2019-03-23T11:54:00.738Z,6.58
2019-03-23T11:56:32.658Z,6.53
2019-03-23T11:59:03.766Z,6.12
2019-03-23T12:01:34.853Z,6.55
2019-03-23T12:04:05.669Z,7.12
2019-03-23T12:06:36.509Z,5.25
2019-03-23T12:09:08.771Z,5.62
2019-03-23T12:11:39.608Z,5.75
2019-03-23T12:14:10.339Z,4.87
2019-03-23T12:16:41.119Z,4.75
2019-03-23T12:19:12.633Z,4.58
2019-03-23T12:21:44.415Z,4.62
2019-03-23T12:24:15.245Z,4.50
2019-03-23T12:26:46.015Z,4.83
2019-03-23T12:29:17.299Z,4.40
2019-03-23T12:31:48.371Z,5.05
2019-03-23T12:34:19.451Z,4.70
2019-03-23T12:36:50.200Z,5.33
2019-03-23T12:39:21.110Z,4.55
2019-03-23T12:41:52.792Z,4.62
2019-03-23T12:44:24.256Z,4.77
2019-03-23T12:46:55.312Z,5.33
2019-03-23T12:49:26.568Z,4.50
2019-03-23T12:51:57.327Z,4.37
2019-03-23T12:54:28.139Z,5.10
2019-03-23T12:56:58.953Z,5.10
2019-03-23T12:59:30.145Z,5.30
2019-03-23T13:02:00.975Z,5.83
2019-03-23T13:04:32.267Z,5.22
2019-03-23T13:07:03.078Z,5.87
2019-03-23T13:09:33.852Z,5.03
2019-03-23T13:12:04.632Z,4.58
2019-03-23T13:14:35.778Z,4.65
2019-03-23T13:17:07.004Z,4.92
2019-03-23T13:19:38.097Z,4.45
2019-03-23T13:22:08.831Z,4.30
2019-03-23T13:24:39.605Z,4.12
2019-03-23T13:27:10.669Z,4.42
2019-03-23T13:29:41.388Z,4.22
2019-03-23T13:32:12.170Z,4.58
2019-03-23T13:34:43.218Z,3.80
2019-03-23T13:37:14.259Z,4.45
2019-03-23T13:39:45.006Z,4.33
2019-03-23T13:42:16.255Z,4.53
2019-03-23T13:44:47.014Z,4.80
2019-03-23T13:47:17.773Z,4.00
2019-03-23T13:49:48.572Z,4.85
2019-03-23T13:52:19.366Z,4.22
2019-03-23T13:54:50.075Z,4.97
2019-03-23T13:57:20.849Z,5.12
2019-03-23T13:59:51.860Z,4.58
2019-03-23T14:02:23.235Z,5.25
2019-03-23T14:04:54.702Z,4.90
2019-03-23T14:07:25.494Z,4.40
2019-03-23T14:09:56.239Z,4.23
2019-03-23T14:12:27.014Z,4.78
2019-03-23T14:14:57.856Z,4.60
2019-03-23T14:17:28.642Z,4.67
2019-03-23T14:20:00.363Z,4.78
2019-03-23T14:22:31.397Z,4.53
2019-03-23T14:25:02.171Z,4.90
2019-03-23T14:27:32.880Z,4.45
2019-03-23T14:30:03.717Z,4.40
2019-03-23T14:32:35.088Z,4.70
2019-03-23T14:35:06.484Z,4.50
2019-03-23T14:37:38.835Z,5.08
2019-03-23T14:40:09.724Z,5.35
2019-03-23T14:42:41.594Z,5.37
2019-03-23T14:45:12.529Z,5.70
2019-03-23T14:47:43.265Z,6.33
2019-03-23T14:50:14.307Z,6.00
2019-03-23T14:52:45.576Z,6.20
2019-03-23T14:55:16.391Z,6.33
2019-03-23T14:57:47.162Z,6.90
2019-03-23T15:00:29.644Z,6.30
2019-03-23T15:03:00.543Z,6.65
2019-03-23T15:05:32.556Z,5.12
2019-03-23T15:08:03.385Z,6.17
2019-03-23T15:10:34.599Z,6.42
2019-03-23T15:13:05.709Z,5.85
2019-03-23T15:15:36.932Z,5.92
2019-03-23T15:18:07.812Z,6.08
2019-03-23T15:20:38.889Z,6.20
2019-03-23T15:23:10.040Z,6.05
2019-03-23T15:25:41.246Z,5.75
2019-03-23T15:28:12.244Z,6.70
2019-03-23T15:30:43.388Z,5.28
2019-03-23T15:33:14.171Z,6.05
2019-03-23T15:35:44.980Z,6.05
2019-03-23T15:38:16.848Z,5.25
2019-03-23T15:40:47.974Z,5.30
2019-03-23T15:43:18.773Z,6.07
2019-03-23T15:45:50.328Z,5.42
2019-03-23T15:48:21.494Z,5.35
2019-03-23T15:50:52.347Z,5.60
2019-03-23T15:53:23.124Z,4.70
2019-03-23T15:55:54.816Z,6.15
2019-03-23T15:58:25.696Z,5.55
2019-03-23T16:00:56.807Z,5.97
2019-03-23T16:03:27.594Z,5.55
2019-03-23T16:05:58.411Z,4.97
2019-03-23T16:08:29.724Z,6.58
2019-03-23T16:11:00.709Z,6.37
2019-03-23T16:13:31.407Z,6.05
2019-03-23T16:16:03.484Z,6.85
2019-03-23T16:18:35.019Z,6.72
2019-03-23T16:21:06.331Z,6.87
2019-03-23T16:23:37.372Z,7.40
2019-03-23T16:26:08.452Z,6.65
2019-03-23T16:28:39.604Z,6.90
2019-03-23T16:31:10.841Z,6.90
2019-03-23T16:33:41.562Z,6.67
2019-03-23T16:36:12.377Z,7.92
2019-03-23T16:38:43.678Z,7.35
2019-03-23T16:41:14.516Z,6.43
2019-03-23T16:43:45.640Z,7.30
2019-03-23T16:46:16.476Z,7.35
2019-03-23T16:48:47.218Z,7.70
2019-03-23T16:51:18.060Z,7.05
2019-03-23T16:53:48.848Z,8.05
2019-03-23T16:56:19.631Z,7.40
2019-03-23T16:58:50.996Z,7.12
2019-03-23T17:01:23.235Z,7.75
2019-03-23T17:03:54.305Z,6.50
2019-03-23T17:06:26.575Z,8.00
2019-03-23T17:08:57.341Z,9.03
2019-03-23T17:11:28.125Z,8.55
2019-03-23T17:13:59.943Z,9.98
2019-03-23T17:16:30.925Z,11.28
2019-03-23T17:19:02.308Z,11.18
2019-03-23T17:21:33.325Z,11.65
2019-03-23T17:24:04.482Z,10.60
2019-03-23T17:26:35.922Z,11.55
2019-03-23T17:29:07.010Z,10.75
2019-03-23T17:31:38.181Z,9.53
2019-03-23T17:34:08.898Z,9.90
2019-03-23T17:36:40.568Z,10.20
2019-03-23T17:39:11.402Z,9.68
2019-03-23T17:41:42.897Z,10.23
2019-03-23T17:44:13.619Z,10.10
2019-03-23T17:46:44.448Z,7.77
2019-03-23T17:49:15.587Z,9.38
2019-03-23T17:51:46.440Z,10.28
2019-03-23T17:54:17.433Z,9.33
2019-03-23T17:56:48.302Z,9.50
2019-03-23T17:59:20.096Z,8.93
2019-03-23T18:01:52.950Z,9.20
2019-03-23T18:04:24.225Z,9.28
2019-03-23T18:06:55.092Z,9.20
2019-03-23T18:09:25.833Z,8.85
2019-03-23T18:11:57.007Z,8.93
2019-03-23T18:14:28.153Z,8.70
2019-03-23T18:16:59.400Z,8.50
2019-03-23T18:19:31.365Z,8.53
2019-03-23T18:22:02.714Z,9.93
2019-03-23T18:24:34.748Z,9.48
2019-03-23T18:27:05.538Z,9.33
2019-03-23T18:29:36.861Z,9.50
2019-03-23T18:32:08.287Z,9.80
2019-03-23T18:34:39.891Z,10.00
2019-03-23T18:37:10.733Z,8.83
2019-03-23T18:39:42.427Z,9.20
2019-03-23T18:42:13.954Z,10.13
2019-03-23T18:44:44.721Z,9.95
2019-03-23T18:47:16.223Z,10.18
2019-03-23T18:49:48.133Z,11.48
2019-03-23T18:52:19.652Z,11.40
2019-03-23T18:54:51.451Z,11.37
2019-03-23T18:57:22.249Z,10.65
2019-03-23T18:59:53.907Z,10.97
2019-03-23T19:02:25.647Z,13.58
2019-03-23T19:04:56.551Z,17.23
2019-03-23T19:07:27.364Z,17.13
2019-03-23T19:09:58.478Z,14.97
2019-03-23T19:12:29.296Z,12.47
2019-03-23T19:15:00.385Z,12.40
2019-03-23T19:17:31.967Z,12.43
2019-03-23T19:20:04.566Z,13.50
2019-03-23T19:22:35.423Z,12.67
2019-03-23T19:25:15.899Z,14.17
2019-03-23T19:27:39.939Z,13.50
2019-03-23T19:30:11.987Z,13.33
2019-03-23T19:32:43.539Z,12.27
2019-03-23T19:35:14.437Z,13.17
2019-03-23T19:37:45.677Z,14.40
2019-03-23T19:40:17.294Z,15.77
2019-03-23T19:42:48.157Z,18.97
2019-03-23T19:45:19.389Z,19.70
2019-03-23T19:47:51.137Z,19.67
2019-03-23T19:50:22.052Z,18.03
2019-03-23T19:52:53.116Z,19.10
2019-03-23T19:55:24.772Z,17.33
2019-03-23T19:57:56.429Z,17.37
2019-03-23T20:00:30.078Z,22.83
2019-03-23T20:03:01.326Z,27.07
2019-03-23T20:05:32.726Z,26.20
2019-03-23T20:08:03.870Z,21.97
2019-03-23T20:10:35.028Z,23.27
2019-03-23T20:13:05.891Z,21.27
2019-03-23T20:15:36.689Z,20.43
2019-03-23T20:18:08.237Z,19.23
2019-03-23T20:20:39.090Z,20.47
2019-03-23T20:23:09.965Z,20.83
2019-03-23T20:25:42.392Z,21.43
2019-03-23T20:28:13.205Z,20.40
2019-03-23T20:30:46.597Z,21.40
2019-03-23T20:33:19.634Z,21.60
2019-03-23T20:35:49.468Z,20.63
2019-03-23T20:38:20.870Z,22.10
2019-03-23T20:40:52.065Z,20.03
2019-03-23T20:43:23.513Z,17.90
2019-03-23T20:45:54.756Z,16.83
2019-03-23T20:48:26.069Z,17.20
2019-03-23T20:50:57.128Z,16.63
2019-03-23T20:53:28.356Z,16.33
2019-03-23T20:55:59.496Z,16.17
2019-03-23T20:58:30.644Z,14.53
2019-03-23T21:01:01.790Z,17.03
2019-03-23T21:03:32.637Z,28.53
2019-03-23T21:06:03.455Z,27.07
2019-03-23T21:08:34.317Z,24.30
2019-03-23T21:11:05.440Z,22.13
2019-03-23T21:13:36.313Z,19.97
2019-03-23T21:16:07.240Z,18.57
2019-03-23T21:18:38.876Z,18.53
2019-03-23T21:21:10.405Z,20.80
2019-03-23T21:23:41.172Z,19.17
2019-03-23T21:26:12.378Z,18.23
2019-03-23T21:28:43.868Z,16.60
2019-03-23T21:31:14.974Z,15.83
2019-03-23T21:33:45.727Z,15.57
2019-03-23T21:36:16.533Z,15.93
2019-03-23T21:38:48.392Z,14.33
2019-03-23T21:41:19.159Z,14.83
2019-03-23T21:43:51.010Z,13.83
2019-03-23T21:46:21.831Z,14.87
2019-03-23T21:48:52.904Z,20.30
2019-03-23T21:51:24.334Z,20.70
2019-03-23T21:53:55.127Z,19.40
2019-03-23T21:56:26.456Z,17.07
2019-03-23T21:58:58.159Z,14.80
2019-03-23T22:01:29.180Z,13.67
2019-03-23T22:04:00.380Z,12.57
2019-03-23T22:06:31.762Z,12.63
2019-03-23T22:09:02.646Z,12.03
2019-03-23T22:11:35.089Z,10.70
2019-03-23T22:14:06.506Z,11.40
2019-03-23T22:16:37.950Z,10.43
2019-03-23T22:19:10.147Z,9.43
2019-03-23T22:21:41.673Z,9.40
2019-03-23T22:24:12.537Z,10.03
2019-03-23T22:26:43.650Z,10.23
2019-03-23T22:29:14.735Z,10.03
2019-03-23T22:31:45.548Z,8.90
2019-03-23T22:34:16.516Z,8.87
2019-03-23T22:36:47.744Z,9.37
2019-03-23T22:39:19.270Z,9.67
2019-03-23T22:41:50.541Z,10.10
2019-03-23T22:44:21.810Z,9.33
2019-03-23T22:46:52.624Z,9.90
2019-03-23T22:49:23.989Z,9.87
2019-03-23T22:51:54.903Z,9.87
2019-03-23T22:54:26.308Z,10.80
2019-03-23T22:56:57.494Z,10.00
2019-03-23T22:59:28.390Z,9.70
2019-03-23T23:01:59.670Z,10.03
2019-03-23T23:04:30.875Z,9.10
2019-03-23T23:07:01.682Z,9.37
2019-03-23T23:09:33.002Z,8.67
2019-03-23T23:12:03.812Z,9.50
2019-03-23T23:14:34.644Z,10.70
2019-03-23T23:17:05.540Z,9.87
2019-03-23T23:19:36.415Z,9.63
2019-03-23T23:22:07.596Z,9.87
2019-03-23T23:24:38.484Z,9.70
2019-03-23T23:27:09.588Z,9.37
2019-03-23T23:29:40.819Z,9.97
2019-03-23T23:32:11.640Z,9.53
2019-03-23T23:34:42.775Z,10.43
2019-03-23T23:37:13.617Z,9.83
2019-03-23T23:39:45.153Z,10.13
2019-03-23T23:42:17.620Z,9.03
2019-03-23T23:44:49.282Z,10.40
2019-03-23T23:47:20.909Z,9.20
2019-03-23T23:49:51.804Z,9.17
2019-03-23T23:52:22.583Z,7.87
2019-03-23T23:54:53.802Z,7.73
2019-03-23T23:57:25.003Z,7.60
2019-03-23T23:59:55.859Z,7.40
